Canso, Canada
Current Conditions -  °F | °C
As of 2:00 PM on Sunday 25 Jan 2015 (Local Time) from CYPD Reporting Station
Overcast Overcast  
Wind Chill: -4°   Ceiling: 2800
Heat Index:   Visibility: 9mi
Dew Point: -3°   Wind: 18mph
Humidity: 70%   Direction: 250°WSW
Pressure: 29.23"   Gusts: 29mph
Location:  45.34°N, 61°W
Report Text: CYPD 251800Z AUTO 25016G25KT 9SM OVC028 02/M03 A2923 RMK SLP902
Loading
Personal Weather Stations






























Interactive Weather Map New forecast layout! Learn more

10-Day Weather Forecast

Advertisements
Track Severe Weather on mobile